Time;durP1;ratioP1;P1;durP2;ratioP2;P2;SDS_P1;SDS_P2;PMS_P1;PMS_P2;Temp;Humidity;BMP_temperature;BMP_pressure;BME280_temperature;BME280_humidity;BME280_pressure;Samples;Min_cycle;Max_cycle;Signal;HPM_P1;HPM_P2
2022/09/21 00:01:54;;;;;;;;;;;17.20;91.10;;;;;;5034244;28;19913;-26
2022/09/21 00:04:19;;;;;;;;;;;17.20;91.10;;;;;;5034282;28;20008;-25
2022/09/21 00:06:45;;;;;;;;;;;17.20;91.10;;;;;;5034090;28;20476;-25
2022/09/21 00:09:11;;;;;;;;;;;17.20;91.10;;;;;;5034357;28;19909;-26
2022/09/21 00:11:36;;;;;;;;;;;17.20;91.10;;;;;;5032762;28;19905;-26
2022/09/21 00:14:06;;;;;;;;;;;17.20;91.00;;;;;;5033940;28;19920;-25
2022/09/21 00:16:31;;;;;;;;;;;17.20;91.00;;;;;;5034029;28;19928;-25
2022/09/21 00:18:57;;;;;;;;;;;17.20;91.00;;;;;;5033862;28;20362;-25
2022/09/21 00:21:23;;;;;;;;;;;17.20;91.00;;;;;;5033595;28;19974;-26
2022/09/21 00:23:49;;;;;;;;;;;17.20;91.00;;;;;;5033740;28;19908;-26
2022/09/21 00:26:16;;;;;;;;;;;17.20;91.00;;;;;;5033955;28;19905;-25
2022/09/21 00:28:43;;;;;;;;;;;17.20;91.00;;;;;;5056555;22;19925;-23
2022/09/21 00:31:11;;;;;;;;;;;17.20;91.00;;;;;;5033361;28;19948;-23
2022/09/21 00:33:37;;;;;;;;;;;17.20;90.90;;;;;;5033918;28;20358;-23
2022/09/21 00:36:04;;;;;;;;;;;17.20;90.90;;;;;;5033366;28;19904;-23
2022/09/21 00:38:29;;;;;;;;;;;17.20;90.90;;;;;;5031880;28;19909;-23
2022/09/21 00:40:55;;;;;;;;;;;17.20;90.90;;;;;;5033163;28;19909;-23
2022/09/21 00:43:20;;;;;;;;;;;17.10;90.90;;;;;;5033260;28;20619;-23
2022/09/21 00:45:47;;;;;;;;;;;17.10;90.90;;;;;;5033319;28;19905;-23
2022/09/21 00:48:14;;;;;;;;;;;17.10;90.80;;;;;;5033098;28;19905;-23
2022/09/21 00:50:41;;;;;;;;;;;17.10;90.80;;;;;;5033028;28;19971;-23
2022/09/21 00:53:06;;;;;;;;;;;17.10;90.80;;;;;;5031795;28;19971;-23
2022/09/21 00:55:40;;;;;;;;;;;17.10;90.80;;;;;;5033747;28;20358;-23
2022/09/21 00:58:08;;;;;;;;;;;17.10;90.80;;;;;;5032892;28;19905;-23
2022/09/21 01:00:38;;;;;;;;;;;17.10;90.80;;;;;;5032819;28;19911;-23
2022/09/21 01:03:04;;;;;;;;;;;17.10;90.80;;;;;;5032983;28;19912;-23
2022/09/21 01:05:29;;;;;;;;;;;17.10;90.70;;;;;;5032956;28;19905;-23
2022/09/21 01:07:58;;;;;;;;;;;17.10;90.70;;;;;;5032682;28;19905;-23
2022/09/21 01:10:26;;;;;;;;;;;17.10;90.70;;;;;;5032559;28;19909;-23
2022/09/21 01:13:10;;;;;;;;;;;17.10;90.70;;;;;;5032883;28;20317;-23
2022/09/21 01:15:58;;;;;;;;;;;17.10;90.70;;;;;;5032758;28;20354;-23
2022/09/21 01:18:33;;;;;;;;;;;17.10;90.70;;;;;;5026934;28;20388;-24
2022/09/21 01:21:17;;;;;;;;;;;17.10;90.70;;;;;;5032506;28;19905;-23
2022/09/21 01:23:46;;;;;;;;;;;17.10;90.70;;;;;;5032657;28;19936;-24
2022/09/21 01:26:36;;;;;;;;;;;17.10;90.70;;;;;;5032781;28;20006;-23
2022/09/21 01:29:34;;;;;;;;;;;17.10;90.60;;;;;;5032259;28;20358;-23
2022/09/21 01:32:08;;;;;;;;;;;17.10;90.60;;;;;;5010132;28;19999;-23
2022/09/21 01:34:55;;;;;;;;;;;17.10;90.60;;;;;;5033369;28;19972;-24
2022/09/21 01:37:23;;;;;;;;;;;17.00;90.60;;;;;;5032944;28;19967;-24
2022/09/21 01:39:52;;;;;;;;;;;17.10;90.60;;;;;;5032677;28;19905;-24
2022/09/21 01:42:18;;;;;;;;;;;17.00;90.60;;;;;;5032290;28;19996;-24
2022/09/21 01:44:44;;;;;;;;;;;17.00;90.50;;;;;;5032434;28;19905;-24
2022/09/21 01:47:13;;;;;;;;;;;17.00;90.50;;;;;;5032427;28;19905;-24
2022/09/21 01:49:51;;;;;;;;;;;17.00;90.50;;;;;;5031937;28;19924;-24
2022/09/21 01:52:22;;;;;;;;;;;17.00;90.50;;;;;;5032297;28;20334;-23
2022/09/21 01:54:51;;;;;;;;;;;17.00;90.50;;;;;;5032250;28;19905;-24
2022/09/21 01:57:27;;;;;;;;;;;17.00;90.50;;;;;;5032215;28;20358;-24
2022/09/21 01:59:54;;;;;;;;;;;17.00;90.50;;;;;;5030613;28;19940;-24
2022/09/21 02:02:24;;;;;;;;;;;17.00;90.50;;;;;;5032420;28;19913;-24
2022/09/21 02:04:49;;;;;;;;;;;17.00;90.40;;;;;;5032151;28;20377;-24
2022/09/21 02:07:16;;;;;;;;;;;17.00;90.40;;;;;;5032149;28;19972;-24
2022/09/21 02:09:41;;;;;;;;;;;17.00;90.40;;;;;;5031876;28;19916;-24
2022/09/21 02:12:08;;;;;;;;;;;17.00;90.40;;;;;;5032018;28;19905;-24
2022/09/21 02:14:34;;;;;;;;;;;17.00;90.40;;;;;;5032284;28;20278;-23
2022/09/21 02:17:18;;;;;;;;;;;17.00;90.40;;;;;;5032155;28;19916;-24
2022/09/21 02:20:02;;;;;;;;;;;16.90;90.30;;;;;;5032062;28;19905;-24
2022/09/21 02:22:46;;;;;;;;;;;16.90;90.30;;;;;;5032122;28;20277;-24
2022/09/21 02:25:14;;;;;;;;;;;16.90;90.30;;;;;;5031990;28;19912;-24
2022/09/21 02:27:42;;;;;;;;;;;16.90;90.30;;;;;;5031999;28;20289;-24
2022/09/21 02:30:16;;;;;;;;;;;16.90;90.30;;;;;;5031566;28;19913;-24
2022/09/21 02:33:01;;;;;;;;;;;16.90;90.30;;;;;;5030707;28;20281;-24
2022/09/21 02:35:47;;;;;;;;;;;16.90;90.30;;;;;;5031726;28;19905;-24
2022/09/21 02:38:27;;;;;;;;;;;16.90;90.30;;;;;;5031805;28;20332;-23
2022/09/21 02:40:58;;;;;;;;;;;16.90;90.20;;;;;;5031786;28;19951;-24
2022/09/21 02:43:26;;;;;;;;;;;16.90;90.20;;;;;;5030594;28;19920;-24
2022/09/21 02:46:13;;;;;;;;;;;16.90;90.20;;;;;;5031693;28;20007;-24
2022/09/21 02:48:45;;;;;;;;;;;16.90;90.20;;;;;;5031350;28;19970;-24
2022/09/21 02:51:15;;;;;;;;;;;16.90;90.20;;;;;;5031756;28;19951;-24
2022/09/21 02:53:41;;;;;;;;;;;16.90;90.20;;;;;;5034231;28;19905;-24
2022/09/21 02:56:07;;;;;;;;;;;16.90;90.10;;;;;;5035180;28;19911;-24
2022/09/21 02:58:35;;;;;;;;;;;16.90;90.10;;;;;;5035104;28;19909;-24
2022/09/21 03:01:00;;;;;;;;;;;16.90;90.20;;;;;;5035232;28;19912;-24
2022/09/21 03:03:26;;;;;;;;;;;16.90;90.20;;;;;;5035112;28;19905;-24
2022/09/21 03:05:52;;;;;;;;;;;16.90;90.10;;;;;;5035110;28;19916;-23
2022/09/21 03:08:18;;;;;;;;;;;16.90;90.10;;;;;;5034919;28;20195;-23
2022/09/21 03:10:45;;;;;;;;;;;16.90;90.10;;;;;;5034656;28;19909;-24
2022/09/21 03:13:10;;;;;;;;;;;16.90;90.10;;;;;;5035022;28;20274;-23
2022/09/21 03:15:36;;;;;;;;;;;16.80;90.00;;;;;;5034915;28;19912;-23
2022/09/21 03:18:08;;;;;;;;;;;16.80;90.00;;;;;;5034727;28;19909;-24
2022/09/21 03:20:37;;;;;;;;;;;16.80;90.00;;;;;;5034711;28;19906;-23
2022/09/21 03:23:03;;;;;;;;;;;16.90;90.00;;;;;;5034696;28;20293;-23
2022/09/21 03:25:28;;;;;;;;;;;16.80;90.00;;;;;;5035215;28;19909;-23
2022/09/21 03:27:54;;;;;;;;;;;16.80;90.00;;;;;;5034687;28;19905;-23
2022/09/21 03:30:20;;;;;;;;;;;16.80;90.00;;;;;;5034253;28;19917;-23
2022/09/21 03:32:50;;;;;;;;;;;16.80;89.90;;;;;;5034582;28;19905;-23
2022/09/21 03:35:16;;;;;;;;;;;16.80;89.90;;;;;;5034608;28;20015;-23
2022/09/21 03:37:41;;;;;;;;;;;16.80;90.00;;;;;;5034376;28;20328;-23
2022/09/21 03:40:07;;;;;;;;;;;16.80;89.90;;;;;;5034697;28;19986;-23
2022/09/21 03:42:33;;;;;;;;;;;16.80;89.80;;;;;;5034505;28;19912;-23
2022/09/21 03:44:58;;;;;;;;;;;16.80;89.90;;;;;;5034385;28;19905;-23
2022/09/21 03:47:24;;;;;;;;;;;16.80;89.80;;;;;;5034276;28;19955;-23
2022/09/21 03:49:49;;;;;;;;;;;16.80;89.70;;;;;;5034643;28;19959;-23
2022/09/21 03:52:15;;;;;;;;;;;16.80;89.70;;;;;;5032829;28;19912;-23
2022/09/21 03:54:40;;;;;;;;;;;16.80;89.80;;;;;;5034127;28;19912;-23
2022/09/21 03:57:07;;;;;;;;;;;16.80;89.70;;;;;;5034402;28;19959;-23
2022/09/21 03:59:34;;;;;;;;;;;16.80;89.70;;;;;;5032795;28;19905;-23
2022/09/21 04:01:59;;;;;;;;;;;16.80;89.70;;;;;;5033963;28;19983;-23
2022/09/21 04:04:25;;;;;;;;;;;16.80;89.60;;;;;;5034116;28;19928;-23
2022/09/21 04:06:50;;;;;;;;;;;16.80;89.60;;;;;;5033929;28;20001;-23
2022/09/21 04:09:16;;;;;;;;;;;16.70;89.50;;;;;;5033553;28;20256;-23
2022/09/21 04:11:43;;;;;;;;;;;16.70;89.50;;;;;;5033998;28;20317;-23
2022/09/21 04:14:10;;;;;;;;;;;16.70;89.50;;;;;;5033838;28;19905;-23
2022/09/21 04:16:35;;;;;;;;;;;16.70;89.50;;;;;;5033740;28;19959;-23
2022/09/21 04:19:01;;;;;;;;;;;16.80;89.50;;;;;;5033521;28;20324;-23
2022/09/21 04:21:26;;;;;;;;;;;16.70;89.40;;;;;;5033573;28;19905;-23
2022/09/21 04:23:52;;;;;;;;;;;16.70;89.30;;;;;;5033582;28;19912;-23
2022/09/21 04:26:23;;;;;;;;;;;16.70;89.30;;;;;;5033672;28;19905;-23
2022/09/21 04:28:48;;;;;;;;;;;16.70;89.50;;;;;;5033430;28;19913;-23
2022/09/21 04:31:14;;;;;;;;;;;16.70;89.30;;;;;;5033405;28;19951;-23
2022/09/21 04:33:40;;;;;;;;;;;16.70;89.30;;;;;;5033491;28;19947;-23
2022/09/21 04:36:06;;;;;;;;;;;16.60;89.20;;;;;;5033285;28;20028;-23
2022/09/21 04:38:31;;;;;;;;;;;16.60;89.20;;;;;;5033299;28;19905;-23
2022/09/21 04:40:57;;;;;;;;;;;16.70;89.30;;;;;;5034704;28;20397;-22
2022/09/21 04:43:23;;;;;;;;;;;16.60;89.20;;;;;;5033493;28;19911;-23
2022/09/21 04:45:49;;;;;;;;;;;16.60;88.90;;;;;;5033793;28;19911;-23
2022/09/21 04:48:14;;;;;;;;;;;16.20;78.70;;;;;;5033237;28;20360;-23
2022/09/21 04:50:40;;;;;;;;;;;15.70;79.60;;;;;;5033075;28;19909;-24
2022/09/21 04:53:05;;;;;;;;;;;15.60;81.50;;;;;;5033340;28;19905;-24
2022/09/21 04:55:31;;;;;;;;;;;15.60;82.40;;;;;;5033265;28;19951;-23
2022/09/21 04:57:56;;;;;;;;;;;15.70;83.00;;;;;;5032924;28;19905;-24
2022/09/21 05:00:22;;;;;;;;;;;15.80;84.10;;;;;;5032802;28;19905;-23
2022/09/21 05:02:47;;;;;;;;;;;15.90;83.80;;;;;;5032890;28;19905;-23
2022/09/21 05:05:13;;;;;;;;;;;15.90;84.00;;;;;;5032925;28;19908;-24
2022/09/21 05:07:38;;;;;;;;;;;16.00;84.30;;;;;;5032810;28;19905;-24
2022/09/21 05:10:05;;;;;;;;;;;16.00;84.40;;;;;;5032526;28;19909;-24
2022/09/21 05:12:33;;;;;;;;;;;16.10;84.60;;;;;;5032841;28;19905;-24
2022/09/21 05:14:59;;;;;;;;;;;16.10;84.60;;;;;;5032318;28;20111;-24
2022/09/21 05:17:25;;;;;;;;;;;16.10;84.80;;;;;;5032842;28;20358;-23
2022/09/21 05:19:52;;;;;;;;;;;16.20;85.00;;;;;;5032564;28;20147;-23
2022/09/21 05:22:18;;;;;;;;;;;16.20;85.10;;;;;;5033004;28;19905;-24
2022/09/21 05:24:44;;;;;;;;;;;16.20;85.30;;;;;;5032810;28;20386;-23
2022/09/21 05:27:09;;;;;;;;;;;16.20;86.10;;;;;;5032828;28;19917;-23
2022/09/21 05:29:35;;;;;;;;;;;16.20;85.50;;;;;;5032368;28;19921;-24
2022/09/21 05:32:14;;;;;;;;;;;16.20;85.50;;;;;;5032635;28;19905;-23
2022/09/21 05:34:57;;;;;;;;;;;16.20;85.60;;;;;;5032843;28;20616;-23
2022/09/21 05:37:41;;;;;;;;;;;16.20;85.70;;;;;;5032710;28;20350;-24
2022/09/21 05:40:08;;;;;;;;;;;16.20;85.70;;;;;;5032454;28;19905;-24
2022/09/21 05:42:34;;;;;;;;;;;16.20;85.90;;;;;;5033184;28;19915;-23
2022/09/21 05:45:00;;;;;;;;;;;16.20;86.00;;;;;;5032710;28;19909;-23
2022/09/21 05:47:37;;;;;;;;;;;16.20;86.00;;;;;;5032826;28;19945;-24
2022/09/21 05:50:16;;;;;;;;;;;16.20;86.10;;;;;;5032246;28;19956;-23
2022/09/21 05:52:44;;;;;;;;;;;16.20;86.20;;;;;;5033067;28;19920;-23
2022/09/21 05:55:25;;;;;;;;;;;16.20;84.50;;;;;;5032550;28;19909;-24
2022/09/21 05:57:55;;;;;;;;;;;15.70;79.90;;;;;;5032522;28;19912;-23
2022/09/21 06:00:21;;;;;;;;;;;15.40;81.60;;;;;;5032472;28;19912;-23
2022/09/21 06:02:50;;;;;;;;;;;15.40;82.40;;;;;;5032981;28;19905;-23
2022/09/21 06:05:15;;;;;;;;;;;15.50;83.00;;;;;;5032785;28;19996;-23
2022/09/21 06:07:41;;;;;;;;;;;15.60;83.40;;;;;;5032958;28;20360;-23
2022/09/21 06:10:07;;;;;;;;;;;15.60;83.70;;;;;;5032871;28;19955;-24
2022/09/21 06:12:33;;;;;;;;;;;15.70;83.90;;;;;;5032750;28;19958;-23
2022/09/21 06:14:58;;;;;;;;;;;15.70;84.10;;;;;;5032479;28;20296;-23
2022/09/21 06:17:26;;;;;;;;;;;15.70;84.20;;;;;;5032250;28;20385;-23
2022/09/21 06:19:52;;;;;;;;;;;15.80;84.50;;;;;;5032393;28;19927;-23
2022/09/21 06:22:18;;;;;;;;;;;15.80;84.60;;;;;;5032542;28;20301;-23
2022/09/21 06:24:43;;;;;;;;;;;15.80;84.70;;;;;;5032232;28;19999;-23
2022/09/21 06:27:09;;;;;;;;;;;15.80;84.80;;;;;;5032519;28;19905;-23
2022/09/21 06:29:34;;;;;;;;;;;15.90;85.00;;;;;;5036316;28;19920;-23
2022/09/21 06:32:00;;;;;;;;;;;15.90;85.10;;;;;;5035953;28;19911;-23
2022/09/21 06:34:26;;;;;;;;;;;15.90;85.20;;;;;;5036086;28;19905;-23
2022/09/21 06:36:52;;;;;;;;;;;16.00;85.30;;;;;;5035914;28;19912;-23
2022/09/21 06:39:17;;;;;;;;;;;16.00;85.40;;;;;;5035748;28;20370;-23
2022/09/21 06:41:43;;;;;;;;;;;16.00;85.50;;;;;;5035733;28;19905;-23
2022/09/21 06:44:09;;;;;;;;;;;16.00;85.60;;;;;;5035614;28;19911;-23
2022/09/21 06:46:34;;;;;;;;;;;16.00;85.70;;;;;;5035678;28;19905;-23
2022/09/21 06:49:00;;;;;;;;;;;16.00;85.80;;;;;;5035502;28;20328;-24
2022/09/21 06:51:25;;;;;;;;;;;15.90;83.20;;;;;;5035715;28;19905;-24
2022/09/21 06:53:55;;;;;;;;;;;15.70;83.30;;;;;;5035480;28;19908;-24
2022/09/21 06:56:21;;;;;;;;;;;15.60;84.00;;;;;;5035871;28;19905;-23
2022/09/21 06:58:47;;;;;;;;;;;15.70;84.30;;;;;;5035586;28;20286;-23
2022/09/21 07:01:13;;;;;;;;;;;15.70;84.30;;;;;;5035498;28;19905;-23
2022/09/21 07:03:39;;;;;;;;;;;15.90;84.30;;;;;;5035387;28;19908;-23
2022/09/21 07:06:05;;;;;;;;;;;16.00;84.30;;;;;;5035315;28;19927;-23
2022/09/21 07:08:31;;;;;;;;;;;16.00;84.30;;;;;;5035073;28;19905;-23
2022/09/21 07:10:57;;;;;;;;;;;16.10;84.40;;;;;;5033788;28;20428;-23
2022/09/21 07:13:23;;;;;;;;;;;16.10;84.40;;;;;;5035019;28;19908;-23
2022/09/21 07:15:49;;;;;;;;;;;16.20;84.60;;;;;;5035061;28;19911;-23
2022/09/21 07:18:14;;;;;;;;;;;16.20;84.70;;;;;;5035017;28;20278;-23
2022/09/21 07:20:40;;;;;;;;;;;16.30;84.90;;;;;;5034634;28;19916;-23
2022/09/21 07:23:15;;;;;;;;;;;16.30;84.90;;;;;;5035064;28;19964;-24
2022/09/21 07:25:41;;;;;;;;;;;16.40;84.90;;;;;;5034934;28;19959;-23
2022/09/21 07:28:07;;;;;;;;;;;16.40;85.00;;;;;;5034476;28;20000;-24
2022/09/21 07:30:32;;;;;;;;;;;16.40;85.00;;;;;;5035158;28;20004;-23
2022/09/21 07:32:58;;;;;;;;;;;16.40;85.00;;;;;;5034772;28;19912;-23
2022/09/21 07:35:23;;;;;;;;;;;16.50;85.10;;;;;;5033587;28;19932;-23
2022/09/21 07:37:49;;;;;;;;;;;16.50;85.20;;;;;;5034930;28;19905;-23
2022/09/21 07:40:14;;;;;;;;;;;16.50;85.30;;;;;;5034615;28;20012;-22
2022/09/21 07:42:40;;;;;;;;;;;16.60;85.40;;;;;;5034888;28;19912;-23
2022/09/21 07:45:06;;;;;;;;;;;16.60;85.30;;;;;;5035085;28;19905;-23
2022/09/21 07:47:31;;;;;;;;;;;16.60;85.40;;;;;;5035169;28;19912;-23
2022/09/21 07:49:57;;;;;;;;;;;16.70;85.40;;;;;;5036863;28;19909;-23
2022/09/21 07:52:23;;;;;;;;;;;16.70;85.50;;;;;;5036650;28;20278;-23
2022/09/21 07:54:48;;;;;;;;;;;16.70;85.50;;;;;;5034615;28;20382;-23
2022/09/21 07:59:58;;;;;;;;;;;16.80;85.60;;;;;;5034338;28;19912;-23
2022/09/21 08:02:24;;;;;;;;;;;16.90;85.60;;;;;;5034289;28;19905;-23
2022/09/21 08:04:49;;;;;;;;;;;16.90;85.60;;;;;;5033122;28;19909;-23
2022/09/21 08:07:15;;;;;;;;;;;16.90;85.60;;;;;;5032963;28;19944;-23
2022/09/21 08:09:40;;;;;;;;;;;16.90;85.70;;;;;;5033973;28;19916;-23
2022/09/21 08:12:07;;;;;;;;;;;16.90;85.70;;;;;;5034272;28;19912;-23
2022/09/21 08:14:34;;;;;;;;;;;16.90;85.70;;;;;;5034448;28;19988;-23
2022/09/21 08:17:00;;;;;;;;;;;16.90;85.70;;;;;;5033922;28;19904;-22
2022/09/21 08:19:26;;;;;;;;;;;17.00;85.80;;;;;;5033937;28;20417;-23
2022/09/21 08:21:52;;;;;;;;;;;17.00;85.90;;;;;;5033981;28;19941;-23
2022/09/21 08:24:18;;;;;;;;;;;17.10;85.90;;;;;;5034184;28;20285;-23
2022/09/21 08:26:44;;;;;;;;;;;17.10;86.00;;;;;;5032750;28;19988;-22
2022/09/21 08:29:12;;;;;;;;;;;17.10;86.00;;;;;;5033730;28;19924;-23
2022/09/21 08:31:37;;;;;;;;;;;17.10;86.00;;;;;;5033799;28;19905;-23
2022/09/21 08:34:03;;;;;;;;;;;17.10;86.00;;;;;;5034192;28;20016;-23
2022/09/21 08:36:28;;;;;;;;;;;17.20;86.00;;;;;;5033727;28;19905;-23
2022/09/21 08:38:55;;;;;;;;;;;17.20;86.00;;;;;;5033964;28;19959;-23
2022/09/21 08:41:23;;;;;;;;;;;17.20;86.10;;;;;;5033766;28;19912;-23
2022/09/21 08:44:01;;;;;;;;;;;17.20;86.10;;;;;;5033860;28;19983;-23
2022/09/21 08:46:27;;;;;;;;;;;17.20;86.10;;;;;;5033617;28;19905;-23
2022/09/21 08:49:16;;;;;;;;;;;17.20;86.20;;;;;;5033339;28;19913;-23
2022/09/21 08:51:48;;;;;;;;;;;17.30;86.20;;;;;;5027168;28;19905;-23
2022/09/21 08:54:18;;;;;;;;;;;17.30;86.30;;;;;;5033681;28;19941;-23
2022/09/21 08:56:44;;;;;;;;;;;17.30;86.30;;;;;;5031826;28;19937;-23
2022/09/21 08:59:14;;;;;;;;;;;17.30;86.40;;;;;;5033383;28;19912;-23
2022/09/21 09:01:49;;;;;;;;;;;17.30;86.30;;;;;;5033382;28;19948;-23
2022/09/21 09:04:18;;;;;;;;;;;17.10;85.00;;;;;;5033369;28;20000;-23
2022/09/21 09:06:53;;;;;;;;;;;16.90;85.80;;;;;;5033490;28;19959;-23
2022/09/21 09:09:21;;;;;;;;;;;16.90;86.50;;;;;;5032802;28;19916;-23
2022/09/21 09:12:00;;;;;;;;;;;17.00;86.50;;;;;;5033014;28;20297;-23
2022/09/21 09:14:25;;;;;;;;;;;17.10;86.30;;;;;;5033373;28;19913;-23
2022/09/21 09:17:06;;;;;;;;;;;17.20;86.20;;;;;;5033273;28;20592;-23
2022/09/21 09:19:52;;;;;;;;;;;17.20;86.20;;;;;;5032533;28;20346;-23
2022/09/21 09:22:22;;;;;;;;;;;17.30;86.10;;;;;;5011711;28;19905;-23
2022/09/21 09:24:52;;;;;;;;;;;17.40;86.20;;;;;;5032804;28;19912;-23
2022/09/21 09:27:18;;;;;;;;;;;17.50;86.10;;;;;;5032875;28;19920;-23
2022/09/21 09:30:03;;;;;;;;;;;17.50;86.00;;;;;;5032459;28;19913;-23
2022/09/21 09:32:37;;;;;;;;;;;17.50;86.00;;;;;;5032760;28;19997;-23
2022/09/21 09:35:20;;;;;;;;;;;17.50;86.00;;;;;;5032870;28;20377;-23
2022/09/21 09:37:46;;;;;;;;;;;17.60;86.10;;;;;;5032984;28;19905;-23
2022/09/21 09:40:12;;;;;;;;;;;17.60;86.10;;;;;;5032203;28;19905;-23
2022/09/21 09:42:41;;;;;;;;;;;17.60;86.10;;;;;;5032773;28;20394;-23
2022/09/21 09:45:17;;;;;;;;;;;17.60;86.10;;;;;;5032963;28;19912;-23
2022/09/21 09:47:48;;;;;;;;;;;17.60;86.10;;;;;;5032798;28;19905;-23
2022/09/21 09:50:20;;;;;;;;;;;17.60;86.20;;;;;;5032269;28;19909;-23
2022/09/21 09:52:47;;;;;;;;;;;17.70;86.20;;;;;;5032453;28;19912;-23
2022/09/21 09:55:16;;;;;;;;;;;17.70;86.20;;;;;;5032845;28;20309;-23
2022/09/21 09:57:41;;;;;;;;;;;17.70;86.20;;;;;;5032373;28;19911;-23
2022/09/21 10:00:12;;;;;;;;;;;17.70;86.30;;;;;;5032230;28;19905;-23
2022/09/21 10:02:51;;;;;;;;;;;17.70;86.30;;;;;;5033869;28;19905;-23
2022/09/21 10:05:21;;;;;;;;;;;17.70;86.30;;;;;;5037048;28;20386;-23
2022/09/21 10:07:47;;;;;;;;;;;17.80;86.30;;;;;;5036322;28;20008;-23
2022/09/21 10:10:27;;;;;;;;;;;17.80;86.40;;;;;;5034631;28;20004;-23
2022/09/21 10:12:55;;;;;;;;;;;17.80;86.40;;;;;;5036401;28;19959;-23
2022/09/21 10:15:22;;;;;;;;;;;17.80;86.50;;;;;;5036373;28;19916;-23
2022/09/21 10:17:56;;;;;;;;;;;17.90;86.50;;;;;;5035909;28;19905;-23
2022/09/21 10:20:21;;;;;;;;;;;17.90;86.40;;;;;;5035931;28;19912;-23
2022/09/21 10:22:52;;;;;;;;;;;17.90;86.30;;;;;;5036073;28;19909;-23
2022/09/21 10:25:19;;;;;;;;;;;18.00;86.30;;;;;;5036021;28;19912;-23
2022/09/21 10:27:46;;;;;;;;;;;18.00;86.30;;;;;;5035909;28;19905;-23
2022/09/21 10:30:29;;;;;;;;;;;18.00;86.20;;;;;;5035353;28;20366;-23
2022/09/21 10:32:56;;;;;;;;;;;18.10;86.30;;;;;;5035865;28;19909;-23
2022/09/21 10:35:21;;;;;;;;;;;18.10;86.20;;;;;;5035789;28;20289;-23
2022/09/21 10:37:52;;;;;;;;;;;18.10;86.10;;;;;;5035711;28;19905;-23
2022/09/21 10:40:17;;;;;;;;;;;18.20;86.00;;;;;;5035319;28;20427;-23
2022/09/21 10:42:43;;;;;;;;;;;18.20;86.10;;;;;;5035676;28;19905;-23
2022/09/21 10:45:14;;;;;;;;;;;18.20;86.00;;;;;;5035645;28;19905;-23
2022/09/21 10:47:41;;;;;;;;;;;18.20;86.00;;;;;;5034131;28;20001;-23
2022/09/21 10:50:21;;;;;;;;;;;18.20;86.00;;;;;;5035180;28;19975;-23
2022/09/21 10:52:47;;;;;;;;;;;18.20;86.10;;;;;;5035910;28;20331;-23
2022/09/21 10:55:17;;;;;;;;;;;18.30;86.10;;;;;;5035226;28;19912;-23
2022/09/21 10:57:44;;;;;;;;;;;18.30;86.10;;;;;;5035381;28;20477;-23
2022/09/21 11:00:24;;;;;;;;;;;18.30;86.10;;;;;;5035113;28;20325;-23
2022/09/21 11:02:50;;;;;;;;;;;18.30;86.00;;;;;;5035343;28;20026;-23
2022/09/21 11:05:18;;;;;;;;;;;18.30;86.00;;;;;;5035890;28;20430;-23
2022/09/21 11:07:48;;;;;;;;;;;18.30;86.10;;;;;;5035528;28;20001;-23
2022/09/21 11:10:13;;;;;;;;;;;18.40;86.10;;;;;;5037599;28;19944;-23
2022/09/21 11:12:47;;;;;;;;;;;18.40;86.20;;;;;;5037641;28;19967;-23
2022/09/21 11:15:20;;;;;;;;;;;18.40;86.00;;;;;;5034822;28;19955;-23
2022/09/21 11:18:06;;;;;;;;;;;18.50;86.10;;;;;;5035061;28;19951;-24
2022/09/21 11:20:42;;;;;;;;;;;18.50;86.00;;;;;;5034125;28;19909;-23
2022/09/21 11:23:26;;;;;;;;;;;18.50;86.00;;;;;;5033603;28;19905;-23
2022/09/21 11:25:56;;;;;;;;;;;18.50;81.20;;;;;;5035063;28;19958;-23
2022/09/21 11:28:28;;;;;;;;;;;18.40;78.10;;;;;;5034550;28;19976;-23
2022/09/21 11:30:54;;;;;;;;;;;18.30;78.60;;;;;;5034472;28;19939;-23
2022/09/21 11:33:38;;;;;;;;;;;18.20;79.50;;;;;;5034827;28;19920;-23
2022/09/21 11:36:04;;;;;;;;;;;18.20;80.10;;;;;;5034682;28;19905;-23
2022/09/21 11:38:29;;;;;;;;;;;18.20;80.80;;;;;;5034662;28;19912;-24
2022/09/21 11:41:02;;;;;;;;;;;18.20;81.50;;;;;;5034466;28;19964;-23
2022/09/21 11:43:31;;;;;;;;;;;18.10;81.70;;;;;;5034813;28;20366;-23
2022/09/21 11:46:11;;;;;;;;;;;18.10;82.20;;;;;;5034586;28;19912;-23
2022/09/21 11:48:46;;;;;;;;;;;18.10;82.50;;;;;;5034386;28;19940;-23
2022/09/21 11:51:14;;;;;;;;;;;18.10;82.70;;;;;;5034732;28;19909;-23
2022/09/21 11:53:47;;;;;;;;;;;18.20;83.00;;;;;;5032900;28;19905;-23
2022/09/21 11:56:42;;;;;;;;;;;18.20;83.20;;;;;;5034431;28;19936;-23
2022/09/21 11:59:07;;;;;;;;;;;18.20;83.30;;;;;;5031826;28;20329;-23
2022/09/21 12:01:33;;;;;;;;;;;18.20;83.50;;;;;;5034053;28;19905;-23
2022/09/21 12:04:02;;;;;;;;;;;18.20;83.60;;;;;;5033990;28;19999;-23
2022/09/21 12:06:35;;;;;;;;;;;18.30;83.80;;;;;;5033969;28;19905;-23
2022/09/21 12:09:10;;;;;;;;;;;18.30;83.80;;;;;;5033979;28;19979;-23
2022/09/21 12:11:38;;;;;;;;;;;18.30;83.90;;;;;;5033955;28;20139;-23
2022/09/21 12:14:09;;;;;;;;;;;18.30;84.00;;;;;;5033894;28;19996;-23
2022/09/21 12:16:40;;;;;;;;;;;18.30;84.10;;;;;;5033736;28;19905;-23
2022/09/21 12:19:18;;;;;;;;;;;18.30;84.20;;;;;;5033635;28;20259;-23
2022/09/21 12:21:48;;;;;;;;;;;18.30;84.20;;;;;;5033802;28;19958;-23
2022/09/21 12:24:19;;;;;;;;;;;18.30;84.30;;;;;;5033776;28;19909;-23
2022/09/21 12:26:58;;;;;;;;;;;18.30;84.40;;;;;;5033708;28;19912;-23
2022/09/21 12:29:36;;;;;;;;;;;18.40;84.50;;;;;;5033680;28;19964;-24
2022/09/21 12:32:02;;;;;;;;;;;18.40;84.50;;;;;;5033462;28;19905;-23
2022/09/21 12:34:40;;;;;;;;;;;18.40;84.70;;;;;;5033551;28;19928;-23
2022/09/21 12:37:08;;;;;;;;;;;18.40;84.70;;;;;;5033532;28;19905;-23
2022/09/21 12:39:38;;;;;;;;;;;18.30;84.90;;;;;;5033097;28;19905;-23
2022/09/21 12:42:06;;;;;;;;;;;18.40;84.90;;;;;;5033307;28;20351;-23
2022/09/21 12:44:55;;;;;;;;;;;18.40;84.90;;;;;;5033444;28;19905;-23
2022/09/21 12:47:26;;;;;;;;;;;18.30;84.90;;;;;;5027517;28;19909;-23
2022/09/21 12:49:55;;;;;;;;;;;18.40;85.00;;;;;;5032828;28;19915;-23
2022/09/21 12:52:22;;;;;;;;;;;18.30;85.10;;;;;;5033155;28;19909;-23
2022/09/21 12:54:51;;;;;;;;;;;18.30;85.20;;;;;;5033157;28;19951;-24
2022/09/21 12:57:23;;;;;;;;;;;18.30;85.40;;;;;;5033170;28;20267;-23
2022/09/21 12:59:55;;;;;;;;;;;18.30;85.40;;;;;;5032827;28;20386;-23
2022/09/21 13:02:25;;;;;;;;;;;18.30;85.50;;;;;;5032810;28;19909;-23
2022/09/21 13:05:06;;;;;;;;;;;18.30;85.50;;;;;;5032861;28;19905;-23
2022/09/21 13:07:31;;;;;;;;;;;18.30;85.60;;;;;;5032921;28;19912;-24
2022/09/21 13:09:59;;;;;;;;;;;18.10;81.70;;;;;;5032543;28;19909;-23
2022/09/21 13:12:28;;;;;;;;;;;17.90;82.80;;;;;;5032874;28;19905;-24
2022/09/21 13:14:58;;;;;;;;;;;17.90;83.30;;;;;;5033149;28;19967;-23
2022/09/21 13:17:26;;;;;;;;;;;17.90;83.60;;;;;;5032866;28;19974;-24
2022/09/21 13:19:57;;;;;;;;;;;17.90;83.90;;;;;;5032581;28;19999;-24
2022/09/21 13:22:24;;;;;;;;;;;17.90;84.00;;;;;;5031377;28;19944;-23
2022/09/21 13:25:00;;;;;;;;;;;18.00;84.30;;;;;;5032740;28;19905;-23
2022/09/21 13:28:02;;;;;;;;;;;18.00;84.30;;;;;;5032558;28;20332;-23
2022/09/21 13:30:32;;;;;;;;;;;18.00;84.40;;;;;;4990622;28;19965;-23
2022/09/21 13:32:58;;;;;;;;;;;18.00;84.60;;;;;;5025621;28;20365;-24
2022/09/21 13:35:43;;;;;;;;;;;18.00;84.60;;;;;;5032636;28;19932;-23
2022/09/21 13:38:31;;;;;;;;;;;18.10;84.70;;;;;;5032095;28;20270;-23
2022/09/21 13:40:58;;;;;;;;;;;18.10;84.70;;;;;;5032436;28;20282;-23
2022/09/21 13:43:44;;;;;;;;;;;18.00;80.30;;;;;;5032500;28;19906;-24
2022/09/21 13:46:29;;;;;;;;;;;17.80;81.00;;;;;;5032472;28;20336;-23
2022/09/21 13:48:55;;;;;;;;;;;17.80;81.80;;;;;;5032104;28;19905;-23
2022/09/21 13:51:22;;;;;;;;;;;17.80;82.20;;;;;;5032493;28;19909;-23
2022/09/21 13:53:52;;;;;;;;;;;17.80;82.30;;;;;;5031201;28;19905;-23
2022/09/21 13:56:20;;;;;;;;;;;17.90;82.40;;;;;;5032376;28;19912;-23
2022/09/21 13:58:47;;;;;;;;;;;17.90;82.50;;;;;;5032119;28;19960;-23
2022/09/21 14:01:15;;;;;;;;;;;18.00;82.80;;;;;;5032446;28;19920;-23
2022/09/21 14:03:45;;;;;;;;;;;18.00;82.80;;;;;;5032411;28;19998;-24
2022/09/21 14:06:12;;;;;;;;;;;18.10;83.20;;;;;;5032443;28;19915;-23
2022/09/21 14:08:39;;;;;;;;;;;18.10;83.00;;;;;;5032189;28;20321;-23
2022/09/21 14:11:14;;;;;;;;;;;18.10;82.90;;;;;;5030687;28;19963;-23
2022/09/21 14:13:40;;;;;;;;;;;18.20;83.00;;;;;;5032622;28;20405;-23
2022/09/21 14:16:26;;;;;;;;;;;18.20;83.00;;;;;;5032647;28;19940;-23
2022/09/21 14:18:52;;;;;;;;;;;18.20;83.30;;;;;;5032782;28;19940;-23
2022/09/21 14:21:18;;;;;;;;;;;18.30;83.10;;;;;;5032416;28;19998;-23
2022/09/21 14:24:03;;;;;;;;;;;18.30;83.30;;;;;;5033775;28;19909;-24
2022/09/21 14:26:30;;;;;;;;;;;18.30;83.40;;;;;;5033744;28;19912;-24
2022/09/21 14:28:56;;;;;;;;;;;18.30;84.20;;;;;;5031715;28;19999;-24
2022/09/21 14:31:28;;;;;;;;;;;18.30;83.50;;;;;;5031996;28;19932;-24
2022/09/21 14:33:54;;;;;;;;;;;18.30;83.60;;;;;;5031918;28;20370;-24